Terminal Aerodrome Forecast
Issued by NWS Jackson, KY

Home | Current Version | Previous Version | Text Only | Print | Product List | Glossary On
Versions: 1 2 3 4 5 6 7 8 9 10 11 12 13 14 15 16 17 18
000
FTUS43 KJKL 251139
TAFLOZ
TAF
KLOZ 251139Z 2512/2612 28012KT P6SM -SHRA BKN045
     FM251500 27014G20KT P6SM BKN030
     FM251700 27016G24KT P6SM VCSH BKN030
     FM251800 28015G24KT P6SM VCSH BKN045
     FM252200 28012KT P6SM SCT050
     FM260300 VRB06KT P6SM SCT060=

USA.gov is the U.S. government's official web portal to all federal, state and local government web resources and services.